sensor_id;sensor_type;location;lat;lon;timestamp;P1;durP1;ratioP1;P2;durP2;ratioP2
7523;SDS011;3803;51.666;7.630;2023-09-08T00:00:18;20.50;;;13.55;;
7523;SDS011;3803;51.666;7.630;2023-09-08T00:00:39;19.95;;;14.02;;
7523;SDS011;3803;51.666;7.630;2023-09-08T00:01:01;16.27;;;14.45;;
7523;SDS011;3803;51.666;7.630;2023-09-08T00:01:22;17.02;;;15.23;;
7523;SDS011;3803;51.666;7.630;2023-09-08T00:01:42;17.57;;;15.30;;
7523;SDS011;3803;51.666;7.630;2023-09-08T00:02:03;19.05;;;15.23;;
7523;SDS011;3803;51.666;7.630;2023-09-08T00:02:24;18.85;;;14.40;;
7523;SDS011;3803;51.666;7.630;2023-09-08T00:02:45;17.85;;;14.20;;
7523;SDS011;3803;51.666;7.630;2023-09-08T00:03:06;15.65;;;13.25;;
7523;SDS011;3803;51.666;7.630;2023-09-08T00:03:26;16.35;;;13.75;;
7523;SDS011;3803;51.666;7.630;2023-09-08T00:03:47;19.47;;;14.20;;
7523;SDS011;3803;51.666;7.630;2023-09-08T00:04:07;18.92;;;14.90;;
7523;SDS011;3803;51.666;7.630;2023-09-08T00:04:28;20.33;;;15.60;;
7523;SDS011;3803;51.666;7.630;2023-09-08T00:04:49;18.10;;;15.63;;
7523;SDS011;3803;51.666;7.630;2023-09-08T00:05:09;18.92;;;15.45;;
7523;SDS011;3803;51.666;7.630;2023-09-08T00:05:31;16.70;;;14.50;;
7523;SDS011;3803;51.666;7.630;2023-09-08T00:05:52;16.90;;;14.13;;
7523;SDS011;3803;51.666;7.630;2023-09-08T00:06:13;17.02;;;14.55;;
7523;SDS011;3803;51.666;7.630;2023-09-08T00:06:33;17.33;;;14.77;;
7523;SDS011;3803;51.666;7.630;2023-09-08T00:06:54;17.57;;;14.93;;
7523;SDS011;3803;51.666;7.630;2023-09-08T00:07:14;17.55;;;14.48;;
7523;SDS011;3803;51.666;7.630;2023-09-08T00:07:35;18.88;;;14.57;;
7523;SDS011;3803;51.666;7.630;2023-09-08T00:07:56;18.70;;;14.60;;
7523;SDS011;3803;51.666;7.630;2023-09-08T00:08:16;18.50;;;14.40;;
7523;SDS011;3803;51.666;7.630;2023-09-08T00:08:37;18.02;;;14.50;;
7523;SDS011;3803;51.666;7.630;2023-09-08T00:08:58;17.67;;;14.90;;
7523;SDS011;3803;51.666;7.630;2023-09-08T00:09:18;18.48;;;15.60;;
7523;SDS011;3803;51.666;7.630;2023-09-08T00:09:39;17.83;;;15.10;;
7523;SDS011;3803;51.666;7.630;2023-09-08T00:09:59;20.10;;;14.90;;
7523;SDS011;3803;51.666;7.630;2023-09-08T00:10:20;21.88;;;14.85;;
7523;SDS011;3803;51.666;7.630;2023-09-08T00:10:41;23.03;;;15.50;;
7523;SDS011;3803;51.666;7.630;2023-09-08T00:11:02;19.70;;;14.77;;
7523;SDS011;3803;51.666;7.630;2023-09-08T00:11:22;16.40;;;14.40;;
7523;SDS011;3803;51.666;7.630;2023-09-08T00:11:43;16.83;;;14.50;;
7523;SDS011;3803;51.666;7.630;2023-09-08T00:12:04;18.85;;;15.23;;
7523;SDS011;3803;51.666;7.630;2023-09-08T00:12:25;18.58;;;15.07;;
7523;SDS011;3803;51.666;7.630;2023-09-08T00:12:46;17.17;;;14.80;;
7523;SDS011;3803;51.666;7.630;2023-09-08T00:13:06;16.40;;;14.60;;
7523;SDS011;3803;51.666;7.630;2023-09-08T00:13:27;19.50;;;15.05;;
7523;SDS011;3803;51.666;7.630;2023-09-08T00:13:48;18.75;;;14.75;;
7523;SDS011;3803;51.666;7.630;2023-09-08T00:14:10;17.80;;;13.60;;
7523;SDS011;3803;51.666;7.630;2023-09-08T00:14:31;16.80;;;13.50;;
7523;SDS011;3803;51.666;7.630;2023-09-08T00:14:51;19.13;;;13.73;;
7523;SDS011;3803;51.666;7.630;2023-09-08T00:15:12;18.38;;;14.55;;
7523;SDS011;3803;51.666;7.630;2023-09-08T00:15:33;16.35;;;14.10;;
7523;SDS011;3803;51.666;7.630;2023-09-08T00:17:51;16.35;;;14.60;;
7523;SDS011;3803;51.666;7.630;2023-09-08T00:18:12;17.70;;;14.18;;
7523;SDS011;3803;51.666;7.630;2023-09-08T00:18:33;17.02;;;13.82;;
7523;SDS011;3803;51.666;7.630;2023-09-08T00:18:53;16.55;;;13.55;;
7523;SDS011;3803;51.666;7.630;2023-09-08T00:19:14;16.17;;;13.80;;
7523;SDS011;3803;51.666;7.630;2023-09-08T00:19:35;17.20;;;14.57;;
7523;SDS011;3803;51.666;7.630;2023-09-08T00:19:56;17.75;;;15.38;;
7523;SDS011;3803;51.666;7.630;2023-09-08T00:20:17;20.77;;;16.23;;
7523;SDS011;3803;51.666;7.630;2023-09-08T00:20:38;22.83;;;16.55;;
7523;SDS011;3803;51.666;7.630;2023-09-08T00:20:59;24.70;;;16.50;;
7523;SDS011;3803;51.666;7.630;2023-09-08T00:21:19;21.05;;;16.20;;
7523;SDS011;3803;51.666;7.630;2023-09-08T00:21:41;18.30;;;15.50;;
7523;SDS011;3803;51.666;7.630;2023-09-08T00:22:03;21.02;;;15.38;;
7523;SDS011;3803;51.666;7.630;2023-09-08T00:22:26;21.45;;;15.90;;
7523;SDS011;3803;51.666;7.630;2023-09-08T00:22:46;19.98;;;16.30;;
7523;SDS011;3803;51.666;7.630;2023-09-08T00:23:07;18.23;;;15.93;;
7523;SDS011;3803;51.666;7.630;2023-09-08T00:23:28;19.30;;;16.02;;
7523;SDS011;3803;51.666;7.630;2023-09-08T00:23:49;21.42;;;16.60;;
7523;SDS011;3803;51.666;7.630;2023-09-08T00:24:10;21.20;;;16.60;;
7523;SDS011;3803;51.666;7.630;2023-09-08T00:24:31;21.92;;;16.90;;
7523;SDS011;3803;51.666;7.630;2023-09-08T00:24:52;21.10;;;16.27;;
7523;SDS011;3803;51.666;7.630;2023-09-08T00:25:12;22.02;;;16.25;;
7523;SDS011;3803;51.666;7.630;2023-09-08T00:25:33;21.77;;;15.50;;
7523;SDS011;3803;51.666;7.630;2023-09-08T00:25:54;21.27;;;15.60;;
7523;SDS011;3803;51.666;7.630;2023-09-08T00:26:15;19.05;;;15.02;;
7523;SDS011;3803;51.666;7.630;2023-09-08T00:26:37;18.90;;;15.20;;
7523;SDS011;3803;51.666;7.630;2023-09-08T00:26:57;16.38;;;14.57;;
7523;SDS011;3803;51.666;7.630;2023-09-08T00:27:18;15.85;;;14.15;;
7523;SDS011;3803;51.666;7.630;2023-09-08T00:27:38;17.03;;;14.00;;
7523;SDS011;3803;51.666;7.630;2023-09-08T00:27:59;17.52;;;13.45;;
7523;SDS011;3803;51.666;7.630;2023-09-08T00:28:20;18.23;;;13.10;;
7523;SDS011;3803;51.666;7.630;2023-09-08T00:28:41;15.37;;;12.70;;
7523;SDS011;3803;51.666;7.630;2023-09-08T00:29:02;15.00;;;13.00;;
7523;SDS011;3803;51.666;7.630;2023-09-08T00:29:22;15.98;;;13.60;;
7523;SDS011;3803;51.666;7.630;2023-09-08T00:29:43;18.65;;;13.80;;
7523;SDS011;3803;51.666;7.630;2023-09-08T00:30:05;20.40;;;14.40;;
7523;SDS011;3803;51.666;7.630;2023-09-08T00:30:26;21.15;;;14.18;;
7523;SDS011;3803;51.666;7.630;2023-09-08T00:30:48;19.15;;;14.23;;
7523;SDS011;3803;51.666;7.630;2023-09-08T00:31:09;17.92;;;12.80;;
7523;SDS011;3803;51.666;7.630;2023-09-08T00:31:30;14.35;;;12.38;;
7523;SDS011;3803;51.666;7.630;2023-09-08T00:31:51;13.45;;;11.95;;
7523;SDS011;3803;51.666;7.630;2023-09-08T00:32:12;13.77;;;12.27;;
7523;SDS011;3803;51.666;7.630;2023-09-08T00:32:32;15.50;;;12.60;;
7523;SDS011;3803;51.666;7.630;2023-09-08T00:32:54;15.15;;;12.70;;
7523;SDS011;3803;51.666;7.630;2023-09-08T00:33:16;15.50;;;12.70;;
7523;SDS011;3803;51.666;7.630;2023-09-08T00:33:36;13.70;;;12.20;;
7523;SDS011;3803;51.666;7.630;2023-09-08T00:33:57;14.57;;;12.70;;
7523;SDS011;3803;51.666;7.630;2023-09-08T00:34:18;13.35;;;11.98;;
7523;SDS011;3803;51.666;7.630;2023-09-08T00:34:40;12.60;;;11.30;;
7523;SDS011;3803;51.666;7.630;2023-09-08T00:35:01;11.95;;;10.65;;
7523;SDS011;3803;51.666;7.630;2023-09-08T00:35:22;12.05;;;10.68;;
7523;SDS011;3803;51.666;7.630;2023-09-08T00:35:48;14.20;;;11.10;;
7523;SDS011;3803;51.666;7.630;2023-09-08T00:36:09;14.98;;;11.35;;
7523;SDS011;3803;51.666;7.630;2023-09-08T00:36:32;14.73;;;11.68;;
7523;SDS011;3803;51.666;7.630;2023-09-08T00:36:53;12.27;;;11.07;;
7523;SDS011;3803;51.666;7.630;2023-09-08T00:37:13;12.40;;;10.73;;
7523;SDS011;3803;51.666;7.630;2023-09-08T00:37:34;11.93;;;10.13;;
7523;SDS011;3803;51.666;7.630;2023-09-08T00:37:55;11.90;;;10.13;;
7523;SDS011;3803;51.666;7.630;2023-09-08T00:38:16;12.13;;;10.48;;
7523;SDS011;3803;51.666;7.630;2023-09-08T00:38:37;12.93;;;10.52;;
7523;SDS011;3803;51.666;7.630;2023-09-08T00:38:58;14.77;;;10.70;;
7523;SDS011;3803;51.666;7.630;2023-09-08T00:39:19;14.32;;;11.15;;
7523;SDS011;3803;51.666;7.630;2023-09-08T00:39:40;19.63;;;11.95;;
7523;SDS011;3803;51.666;7.630;2023-09-08T00:40:01;20.38;;;12.60;;
7523;SDS011;3803;51.666;7.630;2023-09-08T00:40:22;20.50;;;12.70;;
7523;SDS011;3803;51.666;7.630;2023-09-08T00:40:42;14.05;;;12.55;;
7523;SDS011;3803;51.666;7.630;2023-09-08T00:41:06;13.55;;;12.15;;
7523;SDS011;3803;51.666;7.630;2023-09-08T00:41:26;13.20;;;11.80;;
7523;SDS011;3803;51.666;7.630;2023-09-08T00:41:47;12.90;;;11.50;;
7523;SDS011;3803;51.666;7.630;2023-09-08T00:42:08;12.30;;;10.98;;
7523;SDS011;3803;51.666;7.630;2023-09-08T00:42:29;12.00;;;10.57;;
7523;SDS011;3803;51.666;7.630;2023-09-08T00:42:50;12.70;;;10.13;;
7523;SDS011;3803;51.666;7.630;2023-09-08T00:43:11;12.93;;;10.25;;
7523;SDS011;3803;51.666;7.630;2023-09-08T00:43:32;11.95;;;10.10;;
7523;SDS011;3803;51.666;7.630;2023-09-08T00:43:52;11.50;;;10.27;;
7523;SDS011;3803;51.666;7.630;2023-09-08T00:44:13;11.40;;;10.20;;
7523;SDS011;3803;51.666;7.630;2023-09-08T00:44:34;12.40;;;10.52;;
7523;SDS011;3803;51.666;7.630;2023-09-08T00:44:55;12.55;;;10.70;;
7523;SDS011;3803;51.666;7.630;2023-09-08T00:45:16;12.38;;;10.68;;
7523;SDS011;3803;51.666;7.630;2023-09-08T00:45:38;11.75;;;10.48;;
7523;SDS011;3803;51.666;7.630;2023-09-08T00:46:02;10.82;;;9.73;;
7523;SDS011;3803;51.666;7.630;2023-09-08T00:46:23;12.10;;;10.35;;
7523;SDS011;3803;51.666;7.630;2023-09-08T00:46:45;12.30;;;10.50;;
7523;SDS011;3803;51.666;7.630;2023-09-08T00:47:05;13.47;;;11.00;;
7523;SDS011;3803;51.666;7.630;2023-09-08T00:47:26;13.50;;;11.23;;
7523;SDS011;3803;51.666;7.630;2023-09-08T00:47:47;12.75;;;10.80;;
7523;SDS011;3803;51.666;7.630;2023-09-08T00:48:08;11.95;;;10.65;;
7523;SDS011;3803;51.666;7.630;2023-09-08T00:48:29;11.95;;;10.65;;
7523;SDS011;3803;51.666;7.630;2023-09-08T00:48:51;15.00;;;11.40;;
7523;SDS011;3803;51.666;7.630;2023-09-08T00:49:11;15.33;;;11.60;;
7523;SDS011;3803;51.666;7.630;2023-09-08T00:49:33;16.13;;;11.65;;
7523;SDS011;3803;51.666;7.630;2023-09-08T00:49:54;17.08;;;11.27;;
7523;SDS011;3803;51.666;7.630;2023-09-08T00:50:14;17.85;;;10.93;;
7523;SDS011;3803;51.666;7.630;2023-09-08T00:50:35;19.10;;;10.90;;
7523;SDS011;3803;51.666;7.630;2023-09-08T00:50:57;15.75;;;10.77;;
7523;SDS011;3803;51.666;7.630;2023-09-08T00:51:18;14.73;;;11.02;;
7523;SDS011;3803;51.666;7.630;2023-09-08T00:51:39;12.65;;;11.20;;
7523;SDS011;3803;51.666;7.630;2023-09-08T00:52:00;14.48;;;11.48;;
7523;SDS011;3803;51.666;7.630;2023-09-08T00:52:22;15.20;;;11.00;;
7523;SDS011;3803;51.666;7.630;2023-09-08T00:52:44;14.50;;;10.85;;
7523;SDS011;3803;51.666;7.630;2023-09-08T00:53:05;14.35;;;10.85;;
7523;SDS011;3803;51.666;7.630;2023-09-08T00:53:27;13.43;;;11.40;;
7523;SDS011;3803;51.666;7.630;2023-09-08T00:53:49;14.15;;;11.32;;
7523;SDS011;3803;51.666;7.630;2023-09-08T00:54:11;12.88;;;11.20;;
7523;SDS011;3803;51.666;7.630;2023-09-08T00:54:32;13.50;;;10.95;;
7523;SDS011;3803;51.666;7.630;2023-09-08T00:54:52;13.45;;;11.00;;
7523;SDS011;3803;51.666;7.630;2023-09-08T00:55:13;13.60;;;10.57;;
7523;SDS011;3803;51.666;7.630;2023-09-08T00:55:34;11.35;;;10.00;;
7523;SDS011;3803;51.666;7.630;2023-09-08T00:55:55;11.63;;;9.63;;
7523;SDS011;3803;51.666;7.630;2023-09-08T00:56:17;11.75;;;10.00;;
7523;SDS011;3803;51.666;7.630;2023-09-08T00:56:38;13.40;;;10.60;;
7523;SDS011;3803;51.666;7.630;2023-09-08T00:56:59;12.57;;;10.73;;
7523;SDS011;3803;51.666;7.630;2023-09-08T00:57:23;12.93;;;10.52;;
7523;SDS011;3803;51.666;7.630;2023-09-08T00:57:44;15.82;;;11.23;;
7523;SDS011;3803;51.666;7.630;2023-09-08T00:58:05;16.42;;;11.65;;
7523;SDS011;3803;51.666;7.630;2023-09-08T00:58:26;15.68;;;12.30;;
7523;SDS011;3803;51.666;7.630;2023-09-08T00:58:48;14.90;;;12.30;;
7523;SDS011;3803;51.666;7.630;2023-09-08T00:59:08;15.63;;;12.20;;
7523;SDS011;3803;51.666;7.630;2023-09-08T00:59:30;17.65;;;12.15;;
7523;SDS011;3803;51.666;7.630;2023-09-08T00:59:53;18.40;;;11.82;;
7523;SDS011;3803;51.666;7.630;2023-09-08T01:00:14;18.55;;;11.93;;
7523;SDS011;3803;51.666;7.630;2023-09-08T01:00:35;14.48;;;11.30;;
7523;SDS011;3803;51.666;7.630;2023-09-08T01:00:56;12.40;;;11.15;;
7523;SDS011;3803;51.666;7.630;2023-09-08T01:01:19;11.88;;;10.68;;
7523;SDS011;3803;51.666;7.630;2023-09-08T01:01:40;12.98;;;10.95;;
7523;SDS011;3803;51.666;7.630;2023-09-08T01:02:02;12.90;;;10.32;;
7523;SDS011;3803;51.666;7.630;2023-09-08T01:02:22;13.95;;;10.88;;
7523;SDS011;3803;51.666;7.630;2023-09-08T01:02:44;13.38;;;10.35;;
7523;SDS011;3803;51.666;7.630;2023-09-08T01:03:05;14.20;;;10.70;;
7523;SDS011;3803;51.666;7.630;2023-09-08T01:03:26;14.20;;;10.07;;
7523;SDS011;3803;51.666;7.630;2023-09-08T01:03:46;13.87;;;10.50;;
7523;SDS011;3803;51.666;7.630;2023-09-08T01:04:07;12.40;;;10.27;;
7523;SDS011;3803;51.666;7.630;2023-09-08T01:04:28;12.15;;;10.52;;
7523;SDS011;3803;51.666;7.630;2023-09-08T01:04:48;11.02;;;9.82;;
7523;SDS011;3803;51.666;7.630;2023-09-08T01:05:09;11.03;;;9.93;;
7523;SDS011;3803;51.666;7.630;2023-09-08T01:05:30;11.33;;;10.10;;
7523;SDS011;3803;51.666;7.630;2023-09-08T01:05:51;13.23;;;10.95;;
7523;SDS011;3803;51.666;7.630;2023-09-08T01:06:12;14.43;;;11.83;;
7523;SDS011;3803;51.666;7.630;2023-09-08T01:06:34;14.23;;;12.30;;
7523;SDS011;3803;51.666;7.630;2023-09-08T01:06:55;13.02;;;11.63;;
7523;SDS011;3803;51.666;7.630;2023-09-08T01:07:18;14.57;;;11.40;;
7523;SDS011;3803;51.666;7.630;2023-09-08T01:07:40;15.13;;;12.18;;
7523;SDS011;3803;51.666;7.630;2023-09-08T01:08:02;16.70;;;12.55;;
7523;SDS011;3803;51.666;7.630;2023-09-08T01:08:24;14.80;;;12.40;;
7523;SDS011;3803;51.666;7.630;2023-09-08T01:08:46;15.20;;;12.82;;
7523;SDS011;3803;51.666;7.630;2023-09-08T01:09:07;15.07;;;13.23;;
7523;SDS011;3803;51.666;7.630;2023-09-08T01:09:28;15.23;;;13.45;;
7523;SDS011;3803;51.666;7.630;2023-09-08T01:09:49;14.60;;;13.10;;
7523;SDS011;3803;51.666;7.630;2023-09-08T01:10:11;15.95;;;13.60;;
7523;SDS011;3803;51.666;7.630;2023-09-08T01:10:33;16.70;;;14.27;;
7523;SDS011;3803;51.666;7.630;2023-09-08T01:10:55;16.15;;;14.45;;
7523;SDS011;3803;51.666;7.630;2023-09-08T01:11:17;15.73;;;14.10;;
7523;SDS011;3803;51.666;7.630;2023-09-08T01:11:39;16.77;;;14.90;;
7523;SDS011;3803;51.666;7.630;2023-09-08T01:12:02;19.05;;;15.63;;
7523;SDS011;3803;51.666;7.630;2023-09-08T01:12:24;17.67;;;15.77;;
7523;SDS011;3803;51.666;7.630;2023-09-08T01:12:44;17.40;;;15.57;;
7523;SDS011;3803;51.666;7.630;2023-09-08T01:13:06;17.65;;;15.48;;
7523;SDS011;3803;51.666;7.630;2023-09-08T01:13:28;17.80;;;15.32;;
7523;SDS011;3803;51.666;7.630;2023-09-08T01:13:48;17.40;;;15.27;;
7523;SDS011;3803;51.666;7.630;2023-09-08T01:14:11;16.85;;;15.13;;
7523;SDS011;3803;51.666;7.630;2023-09-08T01:14:33;16.30;;;14.60;;
7523;SDS011;3803;51.666;7.630;2023-09-08T01:14:54;16.20;;;14.60;;
7523;SDS011;3803;51.666;7.630;2023-09-08T01:15:15;16.08;;;14.38;;
7523;SDS011;3803;51.666;7.630;2023-09-08T01:15:36;17.90;;;14.95;;
7523;SDS011;3803;51.666;7.630;2023-09-08T01:15:56;17.63;;;14.80;;
7523;SDS011;3803;51.666;7.630;2023-09-08T01:16:17;17.67;;;14.65;;
7523;SDS011;3803;51.666;7.630;2023-09-08T01:16:38;17.05;;;13.63;;
7523;SDS011;3803;51.666;7.630;2023-09-08T01:17:00;19.35;;;13.93;;
7523;SDS011;3803;51.666;7.630;2023-09-08T01:17:21;20.13;;;14.00;;
7523;SDS011;3803;51.666;7.630;2023-09-08T01:17:41;20.73;;;14.33;;
7523;SDS011;3803;51.666;7.630;2023-09-08T01:18:02;19.13;;;14.23;;
7523;SDS011;3803;51.666;7.630;2023-09-08T01:18:23;17.17;;;14.07;;
7523;SDS011;3803;51.666;7.630;2023-09-08T01:18:46;16.13;;;14.27;;
7523;SDS011;3803;51.666;7.630;2023-09-08T01:19:10;17.35;;;14.30;;
7523;SDS011;3803;51.666;7.630;2023-09-08T01:19:34;18.48;;;14.75;;
7523;SDS011;3803;51.666;7.630;2023-09-08T01:19:56;20.42;;;14.77;;
7523;SDS011;3803;51.666;7.630;2023-09-08T01:20:22;18.95;;;14.85;;
7523;SDS011;3803;51.666;7.630;2023-09-08T01:21:03;17.55;;;14.60;;
7523;SDS011;3803;51.666;7.630;2023-09-08T01:23:46;18.38;;;15.00;;
7523;SDS011;3803;51.666;7.630;2023-09-08T01:24:21;16.27;;;14.57;;
7523;SDS011;3803;51.666;7.630;2023-09-08T01:25:20;17.77;;;14.90;;
7523;SDS011;3803;51.666;7.630;2023-09-08T01:25:46;16.27;;;14.05;;
7523;SDS011;3803;51.666;7.630;2023-09-08T01:26:21;16.73;;;13.73;;
7523;SDS011;3803;51.666;7.630;2023-09-08T01:26:44;18.88;;;13.57;;
7523;SDS011;3803;51.666;7.630;2023-09-08T01:27:05;19.73;;;13.73;;
7523;SDS011;3803;51.666;7.630;2023-09-08T01:27:28;20.05;;;13.88;;
7523;SDS011;3803;51.666;7.630;2023-09-08T01:27:53;18.95;;;14.38;;
7523;SDS011;3803;51.666;7.630;2023-09-08T01:28:15;18.63;;;15.30;;
7523;SDS011;3803;51.666;7.630;2023-09-08T01:28:40;18.98;;;16.17;;
7523;SDS011;3803;51.666;7.630;2023-09-08T01:29:01;18.15;;;15.68;;
7523;SDS011;3803;51.666;7.630;2023-09-08T01:29:26;16.73;;;14.95;;
7523;SDS011;3803;51.666;7.630;2023-09-08T01:29:49;17.63;;;15.68;;
7523;SDS011;3803;51.666;7.630;2023-09-08T01:30:11;19.20;;;15.93;;
7523;SDS011;3803;51.666;7.630;2023-09-08T01:30:34;18.90;;;15.80;;
7523;SDS011;3803;51.666;7.630;2023-09-08T01:30:58;18.85;;;15.63;;
7523;SDS011;3803;51.666;7.630;2023-09-08T01:31:19;17.77;;;14.98;;
7523;SDS011;3803;51.666;7.630;2023-09-08T01:31:40;17.50;;;15.23;;
7523;SDS011;3803;51.666;7.630;2023-09-08T01:32:01;17.85;;;15.18;;
7523;SDS011;3803;51.666;7.630;2023-09-08T01:32:24;17.35;;;15.40;;
7523;SDS011;3803;51.666;7.630;2023-09-08T01:32:46;17.23;;;15.10;;
7523;SDS011;3803;51.666;7.630;2023-09-08T01:33:07;16.88;;;14.95;;
7523;SDS011;3803;51.666;7.630;2023-09-08T01:33:29;17.20;;;15.13;;
7523;SDS011;3803;51.666;7.630;2023-09-08T01:33:50;16.55;;;14.95;;
7523;SDS011;3803;51.666;7.630;2023-09-08T01:34:11;16.75;;;15.05;;
7523;SDS011;3803;51.666;7.630;2023-09-08T01:34:33;16.65;;;14.85;;
7523;SDS011;3803;51.666;7.630;2023-09-08T01:34:55;16.10;;;14.40;;
7523;SDS011;3803;51.666;7.630;2023-09-08T01:35:18;18.40;;;14.80;;
7523;SDS011;3803;51.666;7.630;2023-09-08T01:35:39;18.83;;;13.88;;
7523;SDS011;3803;51.666;7.630;2023-09-08T01:36:00;17.95;;;13.82;;
7523;SDS011;3803;51.666;7.630;2023-09-08T01:36:22;16.63;;;13.63;;
7523;SDS011;3803;51.666;7.630;2023-09-08T01:36:43;15.63;;;14.02;;
7523;SDS011;3803;51.666;7.630;2023-09-08T01:37:06;15.88;;;14.27;;
7523;SDS011;3803;51.666;7.630;2023-09-08T01:37:27;18.02;;;14.00;;
7523;SDS011;3803;51.666;7.630;2023-09-08T01:37:48;20.15;;;14.65;;
7523;SDS011;3803;51.666;7.630;2023-09-08T01:38:09;23.13;;;14.93;;
7523;SDS011;3803;51.666;7.630;2023-09-08T01:38:31;20.00;;;14.98;;
7523;SDS011;3803;51.666;7.630;2023-09-08T01:38:53;18.55;;;14.80;;
7523;SDS011;3803;51.666;7.630;2023-09-08T01:39:13;19.98;;;14.48;;
7523;SDS011;3803;51.666;7.630;2023-09-08T01:39:34;17.95;;;13.88;;
7523;SDS011;3803;51.666;7.630;2023-09-08T01:39:56;16.48;;;13.70;;
7523;SDS011;3803;51.666;7.630;2023-09-08T01:40:16;15.00;;;13.50;;
7523;SDS011;3803;51.666;7.630;2023-09-08T01:40:39;14.95;;;13.45;;
7523;SDS011;3803;51.666;7.630;2023-09-08T01:40:59;14.48;;;12.93;;
7523;SDS011;3803;51.666;7.630;2023-09-08T01:41:21;14.70;;;13.20;;
7523;SDS011;3803;51.666;7.630;2023-09-08T01:41:42;14.90;;;13.30;;
7523;SDS011;3803;51.666;7.630;2023-09-08T01:42:03;14.82;;;13.20;;
7523;SDS011;3803;51.666;7.630;2023-09-08T01:42:24;18.47;;;13.50;;
7523;SDS011;3803;51.666;7.630;2023-09-08T01:42:44;18.67;;;14.00;;
7523;SDS011;3803;51.666;7.630;2023-09-08T01:43:05;18.90;;;14.38;;
7523;SDS011;3803;51.666;7.630;2023-09-08T01:43:26;16.20;;;14.13;;
7523;SDS011;3803;51.666;7.630;2023-09-08T01:43:47;16.38;;;13.98;;
7523;SDS011;3803;51.666;7.630;2023-09-08T01:44:07;16.03;;;13.83;;
7523;SDS011;3803;51.666;7.630;2023-09-08T01:44:30;16.67;;;13.95;;
7523;SDS011;3803;51.666;7.630;2023-09-08T01:44:51;19.75;;;13.95;;
7523;SDS011;3803;51.666;7.630;2023-09-08T01:45:12;20.52;;;13.98;;
7523;SDS011;3803;51.666;7.630;2023-09-08T01:45:32;19.07;;;14.10;;
7523;SDS011;3803;51.666;7.630;2023-09-08T01:45:53;17.08;;;14.40;;
7523;SDS011;3803;51.666;7.630;2023-09-08T01:46:14;16.63;;;14.13;;
7523;SDS011;3803;51.666;7.630;2023-09-08T01:46:34;16.67;;;13.73;;
7523;SDS011;3803;51.666;7.630;2023-09-08T01:46:55;16.80;;;13.00;;
7523;SDS011;3803;51.666;7.630;2023-09-08T01:47:18;14.40;;;11.82;;
7523;SDS011;3803;51.666;7.630;2023-09-08T01:47:38;14.60;;;12.02;;
7523;SDS011;3803;51.666;7.630;2023-09-08T01:47:59;14.55;;;12.88;;
7523;SDS011;3803;51.666;7.630;2023-09-08T01:48:20;15.95;;;14.25;;
7523;SDS011;3803;51.666;7.630;2023-09-08T01:48:41;17.13;;;15.32;;
7523;SDS011;3803;51.666;7.630;2023-09-08T01:49:02;17.10;;;15.17;;
7523;SDS011;3803;51.666;7.630;2023-09-08T01:49:23;20.52;;;14.63;;
7523;SDS011;3803;51.666;7.630;2023-09-08T01:49:44;19.58;;;13.57;;
7523;SDS011;3803;51.666;7.630;2023-09-08T01:50:05;18.27;;;13.50;;
7523;SDS011;3803;51.666;7.630;2023-09-08T01:50:27;15.35;;;13.73;;
7523;SDS011;3803;51.666;7.630;2023-09-08T01:50:49;15.68;;;14.07;;
7523;SDS011;3803;51.666;7.630;2023-09-08T01:51:10;15.60;;;13.90;;
7523;SDS011;3803;51.666;7.630;2023-09-08T01:51:31;15.75;;;13.23;;
7523;SDS011;3803;51.666;7.630;2023-09-08T01:51:52;17.93;;;13.13;;
7523;SDS011;3803;51.666;7.630;2023-09-08T01:52:12;18.40;;;13.05;;
7523;SDS011;3803;51.666;7.630;2023-09-08T01:52:33;18.30;;;13.23;;
7523;SDS011;3803;51.666;7.630;2023-09-08T01:52:55;16.05;;;13.50;;
7523;SDS011;3803;51.666;7.630;2023-09-08T01:53:17;17.75;;;14.10;;
7523;SDS011;3803;51.666;7.630;2023-09-08T01:53:38;16.53;;;13.47;;
7523;SDS011;3803;51.666;7.630;2023-09-08T01:53:59;16.63;;;13.60;;
7523;SDS011;3803;51.666;7.630;2023-09-08T01:54:20;15.55;;;13.77;;
7523;SDS011;3803;51.666;7.630;2023-09-08T01:54:40;16.00;;;14.30;;
7523;SDS011;3803;51.666;7.630;2023-09-08T01:55:01;19.15;;;14.20;;
7523;SDS011;3803;51.666;7.630;2023-09-08T01:55:23;21.95;;;14.35;;
7523;SDS011;3803;51.666;7.630;2023-09-08T01:55:43;22.27;;;13.88;;
7523;SDS011;3803;51.666;7.630;2023-09-08T01:56:04;18.88;;;14.50;;
7523;SDS011;3803;51.666;7.630;2023-09-08T01:56:25;16.90;;;14.20;;
7523;SDS011;3803;51.666;7.630;2023-09-08T01:56:46;17.27;;;14.13;;
7523;SDS011;3803;51.666;7.630;2023-09-08T01:57:07;18.17;;;14.10;;
7523;SDS011;3803;51.666;7.630;2023-09-08T01:57:28;18.15;;;14.65;;
7523;SDS011;3803;51.666;7.630;2023-09-08T01:57:49;17.70;;;14.50;;
7523;SDS011;3803;51.666;7.630;2023-09-08T01:58:11;17.80;;;14.38;;
7523;SDS011;3803;51.666;7.630;2023-09-08T01:58:32;18.05;;;14.70;;
7523;SDS011;3803;51.666;7.630;2023-09-08T01:58:54;16.67;;;15.00;;
7523;SDS011;3803;51.666;7.630;2023-09-08T01:59:15;15.93;;;14.32;;
7523;SDS011;3803;51.666;7.630;2023-09-08T01:59:36;15.75;;;14.05;;
7523;SDS011;3803;51.666;7.630;2023-09-08T01:59:58;16.15;;;13.80;;
7523;SDS011;3803;51.666;7.630;2023-09-08T02:00:19;16.58;;;14.40;;
7523;SDS011;3803;51.666;7.630;2023-09-08T02:00:40;17.33;;;14.80;;
7523;SDS011;3803;51.666;7.630;2023-09-08T02:01:01;17.38;;;14.85;;
7523;SDS011;3803;51.666;7.630;2023-09-08T02:01:25;17.42;;;14.40;;
7523;SDS011;3803;51.666;7.630;2023-09-08T02:01:46;15.30;;;13.70;;
7523;SDS011;3803;51.666;7.630;2023-09-08T02:02:07;16.08;;;14.48;;
7523;SDS011;3803;51.666;7.630;2023-09-08T02:02:28;15.70;;;14.20;;
7523;SDS011;3803;51.666;7.630;2023-09-08T02:02:49;15.52;;;14.07;;
7523;SDS011;3803;51.666;7.630;2023-09-08T02:03:09;16.23;;;13.50;;
7523;SDS011;3803;51.666;7.630;2023-09-08T02:03:30;19.70;;;14.10;;
7523;SDS011;3803;51.666;7.630;2023-09-08T02:03:51;19.38;;;14.60;;
7523;SDS011;3803;51.666;7.630;2023-09-08T02:04:11;17.83;;;15.23;;
7523;SDS011;3803;51.666;7.630;2023-09-08T02:04:32;16.77;;;14.85;;
7523;SDS011;3803;51.666;7.630;2023-09-08T02:04:53;16.10;;;14.03;;
7523;SDS011;3803;51.666;7.630;2023-09-08T02:05:15;18.92;;;14.18;;
7523;SDS011;3803;51.666;7.630;2023-09-08T02:05:36;19.20;;;14.88;;
7523;SDS011;3803;51.666;7.630;2023-09-08T02:05:59;19.42;;;15.38;;
7523;SDS011;3803;51.666;7.630;2023-09-08T02:06:20;19.10;;;15.10;;
7523;SDS011;3803;51.666;7.630;2023-09-08T02:06:40;17.13;;;14.52;;
7523;SDS011;3803;51.666;7.630;2023-09-08T02:07:01;16.45;;;14.70;;
7523;SDS011;3803;51.666;7.630;2023-09-08T02:07:24;15.90;;;14.30;;
7523;SDS011;3803;51.666;7.630;2023-09-08T02:07:45;15.50;;;13.80;;
7523;SDS011;3803;51.666;7.630;2023-09-08T02:08:06;15.60;;;13.57;;
7523;SDS011;3803;51.666;7.630;2023-09-08T02:08:27;16.40;;;13.80;;
7523;SDS011;3803;51.666;7.630;2023-09-08T02:08:47;16.20;;;13.43;;
7523;SDS011;3803;51.666;7.630;2023-09-08T02:09:08;16.70;;;13.75;;
7523;SDS011;3803;51.666;7.630;2023-09-08T02:09:36;17.05;;;13.65;;
7523;SDS011;3803;51.666;7.630;2023-09-08T02:09:58;15.55;;;13.18;;
7523;SDS011;3803;51.666;7.630;2023-09-08T02:10:18;17.63;;;13.57;;
7523;SDS011;3803;51.666;7.630;2023-09-08T02:10:40;22.23;;;14.32;;
7523;SDS011;3803;51.666;7.630;2023-09-08T02:11:01;22.63;;;14.48;;
7523;SDS011;3803;51.666;7.630;2023-09-08T02:11:22;22.27;;;14.35;;
7523;SDS011;3803;51.666;7.630;2023-09-08T02:11:43;17.98;;;14.18;;
7523;SDS011;3803;51.666;7.630;2023-09-08T02:12:04;16.35;;;13.75;;
7523;SDS011;3803;51.666;7.630;2023-09-08T02:12:25;20.17;;;13.30;;
7523;SDS011;3803;51.666;7.630;2023-09-08T02:12:46;19.23;;;13.10;;
7523;SDS011;3803;51.666;7.630;2023-09-08T02:13:07;19.63;;;13.48;;
7523;SDS011;3803;51.666;7.630;2023-09-08T02:13:30;16.52;;;13.80;;
7523;SDS011;3803;51.666;7.630;2023-09-08T02:13:52;15.85;;;13.90;;
7523;SDS011;3803;51.666;7.630;2023-09-08T02:14:12;15.83;;;14.10;;